Time;durP1;ratioP1;P1;durP2;ratioP2;P2;SDS_P1;SDS_P2;PMS_P1;PMS_P2;Temp;Humidity;BMP_temperature;BMP_pressure;BME280_temperature;BME280_humidity;BME280_pressure;Samples;Min_cycle;Max_cycle;Signal;HPM_P1;HPM_P2
2021/09/21 00:01:34;;;;;;;4.40;4.00;;;13.80;99.90;;;;;;5108324;28;20206;-73
2021/09/21 00:04:02;;;;;;;4.60;4.17;;;13.80;99.90;;;;;;5108164;28;20271;-73
2021/09/21 00:06:29;;;;;;;4.47;3.90;;;13.80;99.90;;;;;;5108418;28;20210;-73
2021/09/21 00:08:56;;;;;;;5.37;4.40;;;13.80;99.90;;;;;;5108385;28;20233;-73
2021/09/21 00:11:22;;;;;;;5.30;4.70;;;13.60;99.90;;;;;;5108501;28;20206;-74
2021/09/21 00:13:49;;;;;;;4.43;4.03;;;13.60;99.90;;;;;;5108384;28;20226;-74
2021/09/21 00:16:16;;;;;;;4.47;4.13;;;13.60;99.90;;;;;;5108521;28;20255;-73
2021/09/21 00:18:44;;;;;;;5.10;4.20;;;13.60;99.90;;;;;;5108369;28;20718;-74
2021/09/21 00:21:12;;;;;;;4.80;4.40;;;13.60;99.90;;;;;;5108410;28;20210;-72
2021/09/21 00:23:39;;;;;;;4.60;4.00;;;13.60;99.90;;;;;;5108281;28;20247;-72
2021/09/21 00:26:05;;;;;;;4.97;3.80;;;13.60;99.90;;;;;;5108262;28;20202;-73
2021/09/21 00:28:32;;;;;;;4.57;3.90;;;13.60;99.90;;;;;;5108111;28;20214;-73
2021/09/21 00:31:03;;;;;;;4.30;3.90;;;13.60;99.90;;;;;;5108216;28;20272;-73
2021/09/21 00:33:35;;;;;;;4.83;4.43;;;13.60;99.90;;;;;;5107612;28;20261;-73
2021/09/21 00:36:01;;;;;;;4.20;3.90;;;13.60;99.90;;;;;;5108410;28;20217;-73
2021/09/21 00:38:29;;;;;;;4.17;3.83;;;13.60;99.90;;;;;;5108165;28;20206;-73
2021/09/21 00:40:56;;;;;;;4.43;4.03;;;13.60;99.90;;;;;;5108144;28;20241;-73
2021/09/21 00:43:24;;;;;;;4.73;3.93;;;13.60;99.90;;;;;;5109501;28;20198;-73
2021/09/21 00:45:52;;;;;;;4.40;4.10;;;13.50;99.90;;;;;;5111844;28;20209;-73
2021/09/21 00:48:19;;;;;;;6.03;4.07;;;13.50;99.90;;;;;;5111825;28;20206;-73
2021/09/21 00:50:46;;;;;;;4.37;4.07;;;13.50;99.90;;;;;;5111620;28;20205;-73
2021/09/21 00:53:13;;;;;;;4.20;3.90;;;13.60;99.90;;;;;;5111454;28;20699;-73
2021/09/21 00:55:41;;;;;;;4.20;3.83;;;13.60;99.90;;;;;;5111391;28;20241;-73
2021/09/21 00:58:08;;;;;;;4.40;4.10;;;13.50;99.90;;;;;;5110918;28;20237;-73
2021/09/21 01:00:35;;;;;;;4.10;3.73;;;13.50;99.90;;;;;;5111491;28;20202;-73
2021/09/21 01:03:02;;;;;;;4.63;3.97;;;13.50;99.90;;;;;;5111593;27;20660;-73
2021/09/21 01:05:30;;;;;;;6.53;4.50;;;13.50;99.90;;;;;;5111429;28;20417;-73
2021/09/21 01:07:57;;;;;;;4.20;3.80;;;13.50;99.90;;;;;;5111370;28;20668;-73
2021/09/21 01:10:27;;;;;;;4.33;4.00;;;13.50;99.90;;;;;;5111272;28;20606;-73
2021/09/21 01:12:55;;;;;;;4.67;4.13;;;13.50;99.90;;;;;;5111081;28;20575;-73
2021/09/21 01:15:23;;;;;;;4.70;4.30;;;13.50;99.90;;;;;;5095080;28;20370;-73
2021/09/21 01:17:50;;;;;;;4.30;3.90;;;13.50;99.90;;;;;;5090873;28;20572;-73
2021/09/21 01:20:17;;;;;;;3.63;3.43;;;13.50;99.90;;;;;;5090889;28;20210;-73
2021/09/21 01:22:46;;;;;;;4.07;3.77;;;13.50;99.90;;;;;;5090432;28;20214;-73
2021/09/21 01:25:13;;;;;;;4.67;4.27;;;13.50;99.90;;;;;;5090751;28;20203;-73
2021/09/21 01:27:41;;;;;;;4.17;3.80;;;13.40;99.90;;;;;;5090602;28;20235;-74
2021/09/21 01:30:10;;;;;;;4.40;4.00;;;13.40;99.90;;;;;;5090411;28;20230;-73
2021/09/21 01:32:36;;;;;;;4.47;4.07;;;13.40;99.90;;;;;;5090497;28;21116;-74
2021/09/21 01:35:04;;;;;;;4.00;3.70;;;13.40;99.90;;;;;;5090645;28;20247;-74
2021/09/21 01:37:31;;;;;;;4.53;4.10;;;13.40;99.90;;;;;;5090475;28;20205;-73
2021/09/21 01:39:59;;;;;;;4.93;4.20;;;13.40;99.90;;;;;;5090641;28;20260;-74
2021/09/21 01:42:26;;;;;;;4.63;4.23;;;13.40;99.90;;;;;;5090286;28;20238;-74
2021/09/21 01:44:52;;;;;;;4.07;3.77;;;13.40;99.90;;;;;;5090579;28;20260;-73
2021/09/21 01:47:22;;;;;;;4.60;4.20;;;13.40;99.90;;;;;;5090550;28;20206;-73
2021/09/21 01:50:02;;;;;;;4.90;4.20;;;13.30;99.90;;;;;;5089970;28;20212;-73
2021/09/21 01:52:33;;;;;;;4.77;4.37;;;13.30;99.90;;;;;;5090158;28;20199;-74
2021/09/21 01:55:10;;;;;;;5.10;4.70;;;13.20;99.90;;;;;;5089232;28;20199;-74
2021/09/21 02:00:21;;;;;;;4.40;4.10;;;13.20;99.90;;;;;;5090128;28;20202;-73
2021/09/21 02:02:48;;;;;;;7.70;4.03;;;13.20;99.90;;;;;;5089777;28;20207;-74
2021/09/21 02:05:15;;;;;;;4.70;4.33;;;13.20;99.90;;;;;;5090011;28;20207;-74
2021/09/21 02:07:42;;;;;;;4.33;3.93;;;13.20;99.90;;;;;;5089882;28;20262;-74
2021/09/21 02:10:10;;;;;;;4.50;4.10;;;13.30;99.90;;;;;;5090095;28;20206;-73
2021/09/21 02:12:37;;;;;;;5.40;4.20;;;13.20;99.90;;;;;;5089040;28;20637;-72
2021/09/21 02:15:05;;;;;;;4.70;4.30;;;13.30;99.90;;;;;;5089887;28;20573;-73
2021/09/21 02:17:31;;;;;;;4.10;3.70;;;13.30;99.90;;;;;;5089812;28;20612;-73
2021/09/21 02:19:58;;;;;;;4.27;3.97;;;13.30;99.90;;;;;;5089599;28;20202;-73
2021/09/21 02:22:25;;;;;;;4.03;3.63;;;13.30;99.90;;;;;;5089805;28;20256;-73
2021/09/21 02:24:51;;;;;;;4.80;4.00;;;13.30;99.90;;;;;;5089421;28;20233;-73
2021/09/21 02:27:19;;;;;;;4.60;3.67;;;13.30;99.90;;;;;;5089388;28;20234;-72
2021/09/21 02:29:46;;;;;;;4.60;4.20;;;13.20;99.90;;;;;;5089508;28;20272;-72
2021/09/21 02:32:12;;;;;;;5.63;3.93;;;13.20;99.90;;;;;;5089448;28;20252;-73
2021/09/21 02:34:44;;;;;;;4.50;4.10;;;13.20;99.90;;;;;;5089212;28;20239;-73
2021/09/21 02:37:11;;;;;;;4.30;3.90;;;13.30;99.90;;;;;;5089389;28;20187;-73
2021/09/21 02:39:38;;;;;;;4.37;4.07;;;13.30;99.90;;;;;;5089194;28;20230;-72
2021/09/21 02:42:05;;;;;;;5.30;3.67;;;13.30;99.90;;;;;;5100687;28;20305;-72
2021/09/21 02:44:33;;;;;;;4.63;3.90;;;13.30;99.90;;;;;;5106582;28;20214;-72
2021/09/21 02:47:00;;;;;;;3.87;3.50;;;13.30;99.90;;;;;;5106552;28;20206;-72
2021/09/21 02:49:26;;;;;;;4.30;4.00;;;13.30;99.90;;;;;;5106527;28;20297;-73
2021/09/21 02:51:53;;;;;;;4.90;4.40;;;13.30;99.90;;;;;;5106244;28;20660;-73
2021/09/21 02:54:20;;;;;;;4.63;4.33;;;13.20;99.90;;;;;;5106394;28;20240;-74
2021/09/21 02:56:46;;;;;;;5.20;4.80;;;13.20;99.90;;;;;;5106288;28;20234;-74
2021/09/21 02:59:13;;;;;;;4.70;4.20;;;13.10;99.90;;;;;;5106232;28;20654;-73
2021/09/21 03:01:41;;;;;;;4.10;3.80;;;13.10;99.90;;;;;;5105821;28;20206;-73
2021/09/21 03:04:14;;;;;;;5.30;4.23;;;13.00;99.90;;;;;;5113785;27;20237;-73
2021/09/21 03:06:44;;;;;;;5.13;4.30;;;13.10;99.90;;;;;;5126311;27;20197;-73
2021/09/21 03:09:15;;;;;;;4.73;3.73;;;13.00;99.90;;;;;;5126586;27;20626;-73
2021/09/21 03:11:44;;;;;;;3.97;3.60;;;13.00;99.90;;;;;;5126746;27;20186;-73
2021/09/21 03:17:19;;;;;;;4.33;3.93;;;12.80;99.90;;;;;;5109902;27;20204;-72
2021/09/21 03:19:46;;;;;;;3.97;3.70;;;12.90;99.90;;;;;;5087283;28;20642;-72
2021/09/21 03:22:12;;;;;;;5.83;4.07;;;12.90;99.90;;;;;;5086522;28;20203;-72
2021/09/21 03:24:39;;;;;;;4.47;3.93;;;13.00;99.90;;;;;;5087021;28;20199;-72
2021/09/21 03:27:06;;;;;;;4.50;4.10;;;13.00;99.90;;;;;;5086954;28;20207;-73
2021/09/21 03:29:32;;;;;;;4.87;4.27;;;13.00;99.90;;;;;;5086989;28;20223;-73
2021/09/21 03:32:00;;;;;;;4.10;3.80;;;13.00;99.90;;;;;;5087045;28;20331;-72
2021/09/21 03:34:27;;;;;;;4.47;3.90;;;13.00;99.90;;;;;;5087030;28;20693;-72
2021/09/21 03:36:55;;;;;;;4.10;3.80;;;13.00;99.90;;;;;;5088363;28;20207;-72
2021/09/21 03:39:21;;;;;;;6.53;4.00;;;13.00;99.90;;;;;;5088228;28;20551;-73
2021/09/21 03:41:48;;;;;;;4.60;3.90;;;13.00;99.90;;;;;;5102798;28;20206;-72
2021/09/21 03:44:15;;;;;;;4.23;3.90;;;13.00;99.90;;;;;;5108816;28;20206;-72
2021/09/21 03:46:41;;;;;;;6.80;4.43;;;13.00;99.90;;;;;;5108586;28;20294;-72
2021/09/21 03:49:09;;;;;;;4.20;3.90;;;13.10;99.90;;;;;;5108661;28;20246;-72
2021/09/21 03:51:36;;;;;;;4.73;4.33;;;13.00;99.90;;;;;;5108656;28;20206;-72
2021/09/21 03:54:04;;;;;;;4.77;4.37;;;13.00;99.90;;;;;;5108646;28;20230;-72
2021/09/21 03:56:31;;;;;;;5.17;4.60;;;13.10;99.90;;;;;;5108603;28;20206;-72
2021/09/21 03:58:58;;;;;;;4.73;4.33;;;13.10;99.90;;;;;;5108413;28;20711;-72
2021/09/21 04:01:25;;;;;;;4.73;4.40;;;13.10;99.90;;;;;;5108297;28;20266;-72
2021/09/21 04:03:51;;;;;;;4.63;4.03;;;13.10;99.90;;;;;;5108774;28;20758;-72
2021/09/21 04:06:19;;;;;;;4.40;4.00;;;13.10;99.90;;;;;;5108464;28;20618;-72
2021/09/21 04:08:46;;;;;;;4.70;4.40;;;13.10;99.90;;;;;;5108220;28;20299;-72
2021/09/21 04:11:13;;;;;;;5.13;4.60;;;13.10;99.90;;;;;;5108309;28;20214;-72
2021/09/21 04:13:39;;;;;;;9.10;4.03;;;13.00;99.90;;;;;;5108182;28;20278;-72
2021/09/21 04:16:06;;;;;;;4.70;4.33;;;13.00;99.90;;;;;;5108455;28;20205;-72
2021/09/21 04:18:33;;;;;;;4.87;4.47;;;13.00;99.90;;;;;;5110079;28;20198;-72
2021/09/21 04:21:00;;;;;;;5.00;3.87;;;13.00;99.90;;;;;;5112327;28;20240;-72
2021/09/21 04:23:28;;;;;;;4.50;4.10;;;13.00;99.90;;;;;;5112308;28;20275;-72
2021/09/21 04:25:54;;;;;;;4.53;4.13;;;13.00;99.90;;;;;;5111768;28;20671;-72
2021/09/21 04:28:21;;;;;;;4.90;4.40;;;13.00;99.90;;;;;;5112232;28;20241;-72
2021/09/21 04:30:48;;;;;;;6.83;4.67;;;13.00;99.90;;;;;;5111349;28;20222;-73
2021/09/21 04:33:15;;;;;;;4.87;4.47;;;13.00;99.90;;;;;;5111971;28;20222;-72
2021/09/21 04:35:42;;;;;;;4.80;4.40;;;13.00;99.90;;;;;;5112034;28;20209;-72
2021/09/21 04:38:08;;;;;;;4.57;4.17;;;13.00;99.90;;;;;;5112141;28;20217;-72
2021/09/21 04:40:36;;;;;;;4.67;4.37;;;13.00;99.90;;;;;;5112154;28;20206;-72
2021/09/21 04:43:03;;;;;;;4.13;3.83;;;13.00;99.90;;;;;;5111677;28;20206;-72
2021/09/21 04:45:30;;;;;;;4.87;4.33;;;13.00;99.90;;;;;;5111689;28;20209;-72
2021/09/21 04:47:57;;;;;;;6.20;4.73;;;13.00;99.90;;;;;;5111798;28;20206;-72
2021/09/21 04:50:23;;;;;;;4.60;4.20;;;13.00;99.90;;;;;;5111778;28;20234;-72
2021/09/21 04:52:50;;;;;;;5.67;4.00;;;12.90;99.90;;;;;;5111667;28;20210;-72
2021/09/21 04:55:17;;;;;;;4.80;4.50;;;13.00;99.90;;;;;;5109910;28;20622;-72
2021/09/21 04:57:45;;;;;;;5.00;4.40;;;12.90;99.90;;;;;;5090893;28;20683;-72
2021/09/21 05:00:12;;;;;;;4.97;4.60;;;12.90;99.90;;;;;;5091294;28;20206;-72
2021/09/21 05:02:38;;;;;;;4.93;4.47;;;12.90;99.90;;;;;;5091180;28;20573;-72
2021/09/21 05:05:06;;;;;;;6.10;4.30;;;12.90;99.90;;;;;;5091053;28;20210;-72
2021/09/21 05:07:33;;;;;;;4.70;4.40;;;12.90;99.90;;;;;;5091126;28;20233;-72
2021/09/21 05:10:00;;;;;;;5.07;4.57;;;12.90;99.90;;;;;;5090907;28;20207;-72
2021/09/21 05:12:26;;;;;;;4.70;4.30;;;12.90;99.90;;;;;;5090725;28;20217;-72
2021/09/21 05:14:54;;;;;;;4.70;4.40;;;12.90;99.90;;;;;;5090755;28;20230;-72
2021/09/21 05:17:21;;;;;;;5.53;5.00;;;12.90;99.90;;;;;;5089207;28;20241;-72
2021/09/21 05:19:47;;;;;;;5.50;4.67;;;12.90;99.90;;;;;;5090251;28;20571;-72
2021/09/21 05:22:14;;;;;;;4.53;4.20;;;12.90;99.90;;;;;;5090824;28;20211;-72
2021/09/21 05:24:41;;;;;;;5.10;4.20;;;13.00;99.90;;;;;;5090916;28;20210;-72
2021/09/21 05:27:07;;;;;;;5.03;4.60;;;13.00;99.90;;;;;;5090470;28;20203;-72
2021/09/21 05:29:34;;;;;;;6.73;4.47;;;12.90;99.90;;;;;;5090691;28;20223;-72
2021/09/21 05:32:02;;;;;;;4.53;4.13;;;13.00;99.90;;;;;;5090697;28;20227;-72
2021/09/21 05:34:29;;;;;;;5.60;4.70;;;12.90;99.90;;;;;;5090789;28;20230;-72
2021/09/21 05:36:56;;;;;;;4.73;4.33;;;12.90;99.90;;;;;;5090537;28;20614;-72
2021/09/21 05:39:22;;;;;;;5.60;3.63;;;12.90;99.90;;;;;;5090585;28;20268;-72
2021/09/21 05:41:49;;;;;;;4.90;4.30;;;13.00;99.90;;;;;;5090087;28;20679;-72
2021/09/21 05:44:15;;;;;;;7.33;4.83;;;13.00;99.90;;;;;;5090685;28;20203;-72
2021/09/21 05:46:43;;;;;;;6.00;4.40;;;13.10;99.90;;;;;;5090245;28;20836;-72
2021/09/21 05:49:10;;;;;;;4.93;4.23;;;13.10;99.90;;;;;;5090418;28;20248;-72
2021/09/21 05:51:37;;;;;;;7.07;5.17;;;13.10;99.90;;;;;;5090328;28;20209;-72
2021/09/21 05:54:04;;;;;;;6.90;5.00;;;13.20;99.90;;;;;;5090249;28;20223;-72
2021/09/21 05:56:30;;;;;;;5.60;5.07;;;13.20;99.90;;;;;;5090181;28;20211;-72
2021/09/21 05:58:58;;;;;;;5.93;5.13;;;13.20;99.90;;;;;;5089701;28;20655;-72
2021/09/21 06:01:25;;;;;;;5.40;5.00;;;13.20;99.90;;;;;;5089822;28;20649;-72
2021/09/21 06:03:52;;;;;;;4.83;4.53;;;13.30;99.90;;;;;;5089983;28;20271;-72
2021/09/21 06:06:21;;;;;;;5.00;4.60;;;13.20;99.90;;;;;;5089945;28;20248;-72
2021/09/21 06:08:48;;;;;;;5.73;5.00;;;13.30;99.90;;;;;;5089799;28;20226;-72
2021/09/21 06:11:19;;;;;;;7.40;5.23;;;13.30;99.90;;;;;;5089897;28;20246;-72
2021/09/21 06:13:46;;;;;;;8.63;5.73;;;13.20;99.90;;;;;;5089473;28;20909;-72
2021/09/21 06:16:13;;;;;;;7.50;5.00;;;13.10;99.90;;;;;;5099769;28;20665;-72
2021/09/21 06:18:40;;;;;;;5.07;4.40;;;13.10;99.90;;;;;;5109862;28;20210;-72
2021/09/21 06:21:06;;;;;;;7.97;4.87;;;13.00;99.90;;;;;;5109991;28;20210;-72
2021/09/21 06:23:34;;;;;;;8.00;5.20;;;13.00;99.90;;;;;;5110074;28;20259;-72
2021/09/21 06:26:01;;;;;;;7.23;5.10;;;13.00;99.90;;;;;;5109915;28;20234;-72
2021/09/21 06:28:27;;;;;;;6.53;4.90;;;13.10;99.90;;;;;;5109839;28;20608;-72
2021/09/21 06:30:54;;;;;;;5.30;4.80;;;13.10;99.90;;;;;;5109781;28;20245;-72
2021/09/21 06:33:21;;;;;;;7.80;4.73;;;13.10;99.90;;;;;;5109855;28;20233;-72
2021/09/21 06:35:48;;;;;;;5.37;4.90;;;13.10;99.90;;;;;;5109336;28;20699;-72
2021/09/21 06:38:15;;;;;;;5.67;4.90;;;13.20;99.90;;;;;;5109507;28;20237;-72
2021/09/21 06:40:43;;;;;;;5.73;4.80;;;13.20;99.90;;;;;;5109108;28;20251;-72
2021/09/21 06:43:09;;;;;;;5.57;5.00;;;13.20;99.90;;;;;;5108272;28;21220;-72
2021/09/21 06:45:36;;;;;;;5.07;4.57;;;13.30;99.90;;;;;;5109649;28;20234;-72
2021/09/21 06:48:04;;;;;;;5.10;4.60;;;13.30;99.90;;;;;;5109481;28;20221;-72
2021/09/21 06:50:30;;;;;;;6.30;5.07;;;13.30;99.90;;;;;;5109517;28;20206;-72
2021/09/21 06:52:57;;;;;;;5.63;5.13;;;13.30;99.90;;;;;;5109426;28;20228;-72
2021/09/21 06:55:24;;;;;;;5.13;4.67;;;13.30;99.90;;;;;;5109531;28;20234;-72
2021/09/21 06:57:53;;;;;;;5.53;4.97;;;13.40;99.90;;;;;;5108978;28;20294;-72
2021/09/21 07:00:21;;;;;;;8.40;5.00;;;13.50;99.90;;;;;;5109301;28;20229;-72
2021/09/21 07:02:51;;;;;;;5.47;4.97;;;13.50;99.90;;;;;;5109182;28;20210;-72
2021/09/21 07:05:18;;;;;;;5.50;4.97;;;13.50;99.90;;;;;;5109283;28;20205;-72
2021/09/21 07:07:45;;;;;;;5.40;4.83;;;13.50;99.90;;;;;;5108559;28;20222;-72
2021/09/21 07:10:12;;;;;;;5.50;4.90;;;13.50;99.90;;;;;;5109008;28;20202;-72
2021/09/21 07:12:39;;;;;;;6.63;5.17;;;13.50;99.90;;;;;;5109065;28;20206;-72
2021/09/21 07:15:08;;;;;;;8.10;5.10;;;13.50;99.90;;;;;;5108760;28;20700;-72
2021/09/21 07:17:35;;;;;;;5.10;4.70;;;13.30;99.90;;;;;;5109177;28;20221;-72
2021/09/21 07:20:02;;;;;;;7.50;4.73;;;13.30;99.90;;;;;;5108765;28;20583;-72
2021/09/21 07:22:30;;;;;;;5.23;4.80;;;13.40;99.90;;;;;;5109054;28;20210;-72
2021/09/21 07:24:56;;;;;;;5.60;4.90;;;13.40;99.90;;;;;;5108743;28;20209;-72
2021/09/21 07:27:23;;;;;;;5.00;4.50;;;13.50;99.90;;;;;;5108875;28;20306;-72
2021/09/21 07:29:49;;;;;;;6.30;4.70;;;13.60;99.90;;;;;;5108370;28;20780;-72
2021/09/21 07:32:17;;;;;;;6.83;4.90;;;13.60;99.90;;;;;;5108671;28;20282;-72
2021/09/21 07:34:44;;;;;;;5.00;4.60;;;13.50;99.90;;;;;;5108683;28;20294;-72
2021/09/21 07:37:13;;;;;;;6.57;4.43;;;13.60;99.90;;;;;;5108616;28;20206;-72
2021/09/21 07:39:40;;;;;;;4.50;4.20;;;13.60;99.90;;;;;;5108676;28;20213;-72
2021/09/21 07:42:06;;;;;;;5.67;4.97;;;13.70;99.90;;;;;;5108419;28;20214;-72
2021/09/21 07:44:33;;;;;;;5.43;4.60;;;13.80;99.90;;;;;;5108741;28;20247;-72
2021/09/21 07:47:00;;;;;;;5.37;4.87;;;13.80;99.90;;;;;;5108223;28;20680;-72
2021/09/21 07:49:28;;;;;;;4.77;4.37;;;13.80;99.90;;;;;;5108696;28;20202;-72
2021/09/21 07:51:55;;;;;;;5.13;4.20;;;13.80;99.90;;;;;;5108484;28;20206;-72
2021/09/21 07:54:23;;;;;;;4.37;4.07;;;13.80;99.90;;;;;;5111757;28;20201;-72
2021/09/21 07:56:50;;;;;;;5.47;4.97;;;13.90;99.90;;;;;;5112522;28;20859;-72
2021/09/21 07:59:17;;;;;;;6.13;5.47;;;14.00;99.90;;;;;;5112470;28;20234;-72
2021/09/21 08:01:43;;;;;;;5.73;4.80;;;14.10;99.90;;;;;;5112528;28;20256;-72
2021/09/21 08:04:12;;;;;;;6.60;5.13;;;14.10;99.90;;;;;;5112631;28;20214;-72
2021/09/21 08:06:40;;;;;;;5.07;4.30;;;14.20;99.90;;;;;;5112500;28;20308;-72
2021/09/21 08:09:07;;;;;;;5.37;4.80;;;14.20;99.90;;;;;;5112355;28;20255;-72
2021/09/21 08:11:34;;;;;;;4.20;3.90;;;14.30;99.90;;;;;;5112530;28;20629;-72
2021/09/21 08:14:03;;;;;;;4.77;3.90;;;14.30;99.90;;;;;;5112444;28;20283;-72
2021/09/21 08:16:30;;;;;;;4.20;3.60;;;14.30;99.90;;;;;;5112677;28;20229;-72
2021/09/21 08:18:56;;;;;;;4.27;3.83;;;14.30;99.90;;;;;;5112175;28;20231;-72
2021/09/21 08:21:25;;;;;;;4.63;3.60;;;14.30;99.90;;;;;;5111269;28;20345;-72
2021/09/21 08:23:54;;;;;;;4.10;3.70;;;14.40;99.90;;;;;;5112385;28;20284;-72
2021/09/21 08:26:21;;;;;;;4.17;3.87;;;14.40;99.90;;;;;;5112339;28;20210;-72
2021/09/21 08:28:47;;;;;;;4.63;3.80;;;14.40;99.90;;;;;;5111988;28;20730;-72
2021/09/21 08:31:15;;;;;;;4.67;2.90;;;14.40;99.90;;;;;;5111848;28;20248;-72
2021/09/21 08:33:41;;;;;;;5.10;3.50;;;14.40;99.90;;;;;;5112307;28;20244;-72
2021/09/21 08:36:08;;;;;;;3.47;3.17;;;14.40;99.90;;;;;;5112110;28;20291;-72
2021/09/21 08:38:35;;;;;;;5.97;4.50;;;14.50;99.90;;;;;;5112115;28;20256;-72
2021/09/21 08:41:03;;;;;;;3.23;2.93;;;14.50;99.90;;;;;;5111872;28;20210;-72
2021/09/21 08:43:30;;;;;;;4.13;3.07;;;14.60;99.90;;;;;;5112019;28;20205;-72
2021/09/21 08:45:56;;;;;;;4.80;3.33;;;14.70;99.90;;;;;;5111557;28;20234;-72
2021/09/21 08:48:23;;;;;;;3.80;2.90;;;14.80;99.90;;;;;;5110445;28;20202;-72
2021/09/21 08:50:50;;;;;;;4.43;3.27;;;15.00;99.90;;;;;;5110967;28;20274;-72
2021/09/21 08:53:16;;;;;;;3.10;2.90;;;15.00;99.90;;;;;;5110122;28;20233;-72
2021/09/21 08:55:43;;;;;;;6.10;3.67;;;15.10;99.90;;;;;;5111232;28;20279;-72
2021/09/21 08:58:13;;;;;;;2.83;2.63;;;15.20;99.90;;;;;;5111252;28;20279;-73
2021/09/21 09:00:39;;;;;;;4.30;3.90;;;15.30;99.90;;;;;;5111697;28;20205;-72
2021/09/21 09:03:08;;;;;;;4.10;3.70;;;15.40;99.90;;;;;;5111521;28;20278;-72
2021/09/21 09:05:45;;;;;;;4.23;3.50;;;15.40;99.90;;;;;;5110801;28;20210;-72
2021/09/21 09:08:12;;;;;;;5.07;3.50;;;15.50;99.90;;;;;;5109418;28;20233;-72
2021/09/21 09:10:40;;;;;;;3.73;3.40;;;15.40;99.90;;;;;;5111221;28;20565;-72
2021/09/21 09:13:18;;;;;;;3.57;3.27;;;15.30;99.90;;;;;;5110990;28;20276;-72
2021/09/21 09:15:53;;;;;;;3.33;3.13;;;15.30;99.90;;;;;;5111382;28;20228;-72
2021/09/21 09:18:25;;;;;;;3.83;3.10;;;15.50;99.90;;;;;;5111534;28;20280;-72
2021/09/21 09:20:52;;;;;;;3.40;3.10;;;15.50;99.90;;;;;;5111431;28;20199;-72
2021/09/21 09:23:19;;;;;;;3.47;3.27;;;15.60;99.90;;;;;;5111125;28;20198;-73
2021/09/21 09:25:47;;;;;;;11.77;3.30;;;15.60;99.90;;;;;;5110908;28;20209;-72
2021/09/21 09:28:17;;;;;;;3.40;2.87;;;15.70;99.90;;;;;;5111121;28;20551;-72
2021/09/21 09:30:44;;;;;;;3.00;2.63;;;15.60;99.90;;;;;;5111054;28;20279;-72
2021/09/21 09:33:12;;;;;;;3.53;3.10;;;15.50;99.90;;;;;;5110920;28;20285;-72
2021/09/21 09:35:43;;;;;;;3.67;3.33;;;15.40;99.90;;;;;;5110962;28;20226;-72
2021/09/21 09:38:11;;;;;;;4.43;3.23;;;15.50;99.90;;;;;;5111153;28;20197;-72
2021/09/21 09:40:41;;;;;;;4.20;3.27;;;15.50;99.90;;;;;;5110817;28;20729;-72
2021/09/21 09:43:07;;;;;;;4.23;3.40;;;15.60;99.90;;;;;;5110738;28;20207;-72
2021/09/21 09:45:38;;;;;;;3.67;3.13;;;15.50;99.90;;;;;;5110812;28;20244;-72
2021/09/21 09:48:07;;;;;;;3.13;2.93;;;15.40;99.90;;;;;;5110931;28;20510;-72
2021/09/21 09:50:35;;;;;;;3.40;3.10;;;15.50;99.90;;;;;;5110732;28;20259;-72
2021/09/21 09:53:06;;;;;;;4.37;3.40;;;15.60;99.90;;;;;;5110491;28;20252;-72
2021/09/21 09:55:34;;;;;;;3.40;2.73;;;15.60;99.90;;;;;;5110618;28;20248;-72
2021/09/21 09:58:01;;;;;;;3.63;3.27;;;15.80;99.90;;;;;;5110279;28;20295;-72
2021/09/21 10:00:29;;;;;;;5.13;4.07;;;15.80;99.90;;;;;;5110543;28;20610;-72
2021/09/21 10:02:57;;;;;;;5.50;3.40;;;15.80;99.90;;;;;;5094552;28;20252;-72
2021/09/21 10:05:24;;;;;;;4.50;4.10;;;16.10;99.90;;;;;;5089984;28;20260;-72
2021/09/21 10:07:51;;;;;;;4.10;3.40;;;16.30;99.90;;;;;;5090035;28;20227;-72
2021/09/21 10:10:18;;;;;;;3.07;2.87;;;16.20;99.90;;;;;;5089893;28;20210;-72
2021/09/21 10:12:45;;;;;;;7.80;3.23;;;16.10;99.90;;;;;;5089314;28;20207;-72
2021/09/21 10:15:13;;;;;;;3.27;3.07;;;16.10;99.90;;;;;;5089091;28;20264;-72
2021/09/21 10:17:53;;;;;;;4.07;3.80;;;16.20;99.90;;;;;;5089503;28;20294;-72
2021/09/21 10:20:22;;;;;;;4.80;3.13;;;16.40;99.90;;;;;;5089878;28;20194;-72
2021/09/21 10:22:54;;;;;;;3.93;3.20;;;16.50;99.90;;;;;;5089755;28;20211;-72
2021/09/21 10:25:28;;;;;;;4.03;3.00;;;16.50;99.90;;;;;;5089273;28;20738;-72
2021/09/21 10:27:56;;;;;;;3.77;3.40;;;16.50;99.90;;;;;;5089508;28;20230;-72
2021/09/21 10:30:25;;;;;;;2.93;2.63;;;16.60;99.90;;;;;;5089426;28;20233;-72
2021/09/21 10:32:52;;;;;;;3.10;2.77;;;16.50;99.90;;;;;;5089656;28;20207;-72
2021/09/21 10:35:26;;;;;;;2.77;2.57;;;16.30;99.90;;;;;;5089164;28;20795;-72
2021/09/21 10:37:58;;;;;;;3.07;2.60;;;16.10;99.90;;;;;;5089548;28;20237;-72
2021/09/21 10:40:38;;;;;;;3.40;3.07;;;16.00;99.90;;;;;;5089495;28;20256;-72
2021/09/21 10:43:09;;;;;;;3.03;2.53;;;15.80;99.90;;;;;;5089216;28;20225;-72
2021/09/21 10:45:36;;;;;;;3.30;3.10;;;15.70;99.90;;;;;;5089339;28;20248;-72
2021/09/21 10:48:05;;;;;;;7.10;3.17;;;15.70;99.90;;;;;;5089189;28;20217;-72
2021/09/21 10:50:39;;;;;;;3.30;2.93;;;15.70;99.90;;;;;;5089110;28;20297;-72
2021/09/21 10:53:08;;;;;;;4.33;2.90;;;15.80;99.90;;;;;;5088103;28;20272;-73
2021/09/21 10:55:36;;;;;;;2.93;2.73;;;15.80;99.90;;;;;;5089067;28;20239;-72
2021/09/21 10:58:04;;;;;;;4.47;3.43;;;15.80;99.90;;;;;;5088671;28;20274;-72
2021/09/21 11:00:33;;;;;;;3.97;3.57;;;15.70;99.90;;;;;;5088996;28;20294;-72
2021/09/21 11:03:00;;;;;;;3.20;2.90;;;15.80;99.90;;;;;;5088651;28;20219;-72
2021/09/21 11:05:27;;;;;;;4.77;3.17;;;15.90;99.90;;;;;;5088910;28;20207;-72
2021/09/21 11:07:59;;;;;;;4.37;3.37;;;15.90;99.90;;;;;;5088767;28;20227;-72
2021/09/21 11:10:28;;;;;;;4.17;3.87;;;15.90;99.90;;;;;;5088871;28;20202;-72
2021/09/21 11:12:55;;;;;;;3.67;3.37;;;15.90;99.90;;;;;;5088667;28;20210;-72
2021/09/21 11:15:25;;;;;;;3.43;3.13;;;15.90;99.90;;;;;;5088653;28;20210;-72
2021/09/21 11:18:02;;;;;;;5.13;3.83;;;15.70;99.90;;;;;;5088347;28;20608;-72
2021/09/21 11:20:28;;;;;;;4.57;3.70;;;15.80;99.90;;;;;;5088735;28;20195;-72
2021/09/21 11:23:01;;;;;;;3.57;3.27;;;15.80;99.90;;;;;;5088677;28;20245;-72
2021/09/21 11:25:30;;;;;;;4.07;3.50;;;15.80;99.90;;;;;;5088741;28;20283;-72
2021/09/21 11:27:57;;;;;;;3.17;2.87;;;15.90;99.90;;;;;;5088173;28;20226;-72
2021/09/21 11:30:24;;;;;;;3.90;3.10;;;15.80;99.90;;;;;;5088337;28;20203;-73
2021/09/21 11:32:51;;;;;;;3.20;3.00;;;15.60;99.90;;;;;;5088303;28;20203;-72
2021/09/21 11:35:19;;;;;;;4.10;3.70;;;15.50;99.90;;;;;;5088483;28;20252;-72
2021/09/21 11:37:48;;;;;;;4.30;3.20;;;15.50;99.90;;;;;;5088400;28;20241;-72
2021/09/21 11:40:25;;;;;;;3.40;3.10;;;15.50;99.90;;;;;;5088261;28;20214;-72
2021/09/21 11:42:52;;;;;;;4.90;3.23;;;15.50;99.90;;;;;;5088225;28;20194;-72
2021/09/21 11:45:18;;;;;;;4.57;3.40;;;15.50;99.90;;;;;;5088125;28;20206;-72
2021/09/21 11:47:48;;;;;;;3.40;3.10;;;15.50;99.90;;;;;;5088202;28;20207;-72
2021/09/21 11:50:16;;;;;;;3.60;3.30;;;15.60;99.90;;;;;;5087862;28;20297;-72
2021/09/21 11:52:48;;;;;;;4.30;3.20;;;15.60;99.90;;;;;;5088347;28;20210;-72
2021/09/21 11:55:16;;;;;;;4.10;3.13;;;15.70;99.90;;;;;;5087932;28;20667;-72
2021/09/21 11:57:47;;;;;;;3.30;3.10;;;15.80;99.90;;;;;;5087823;28;20247;-72
2021/09/21 12:00:26;;;;;;;5.60;3.40;;;15.80;99.90;;;;;;5087893;28;20703;-72
2021/09/21 12:02:57;;;;;;;3.50;3.20;;;15.80;99.90;;;;;;5088398;28;20619;-73
2021/09/21 12:05:24;;;;;;;3.47;3.17;;;15.80;99.90;;;;;;5088087;28;20198;-72
2021/09/21 12:07:51;;;;;;;3.60;3.30;;;15.80;99.90;;;;;;5087725;28;20459;-72
2021/09/21 12:10:19;;;;;;;3.27;2.97;;;15.80;99.90;;;;;;5087685;28;20252;-72
2021/09/21 12:12:58;;;;;;;4.97;3.20;;;15.70;99.90;;;;;;5087887;28;20203;-72
2021/09/21 12:15:25;;;;;;;2.90;2.70;;;15.80;99.90;;;;;;5087975;28;20262;-72
2021/09/21 12:17:54;;;;;;;3.07;2.87;;;15.80;99.90;;;;;;5088129;28;20283;-72
2021/09/21 12:20:24;;;;;;;5.63;3.23;;;15.90;99.90;;;;;;5087979;28;20203;-73
2021/09/21 12:22:52;;;;;;;3.30;3.10;;;16.00;99.90;;;;;;5088053;28;20225;-73
2021/09/21 12:25:21;;;;;;;3.17;2.87;;;16.00;99.90;;;;;;5087925;28;20210;-73
2021/09/21 12:27:54;;;;;;;3.00;2.80;;;15.90;99.90;;;;;;5088154;28;20226;-72
2021/09/21 12:30:24;;;;;;;4.67;3.20;;;15.70;99.90;;;;;;5087744;28;20199;-72
2021/09/21 12:32:58;;;;;;;3.20;3.00;;;15.80;99.90;;;;;;5087220;28;20242;-72
2021/09/21 12:35:28;;;;;;;3.40;3.00;;;15.80;99.90;;;;;;5087749;28;20203;-72
2021/09/21 12:38:02;;;;;;;3.30;3.10;;;15.80;99.90;;;;;;5087840;28;20218;-72
2021/09/21 12:40:29;;;;;;;2.93;2.73;;;15.70;99.90;;;;;;5090839;28;20195;-73
2021/09/21 12:42:57;;;;;;;3.60;3.10;;;15.80;99.90;;;;;;5091776;28;20203;-73
2021/09/21 12:45:23;;;;;;;3.57;3.23;;;15.80;99.90;;;;;;5091267;28;20199;-73
2021/09/21 12:47:51;;;;;;;4.40;4.00;;;15.80;99.90;;;;;;5091661;28;20248;-72
2021/09/21 12:50:21;;;;;;;3.47;3.17;;;15.80;99.90;;;;;;5091445;28;20234;-73
2021/09/21 12:52:52;;;;;;;3.33;3.03;;;15.80;99.90;;;;;;5091342;28;20268;-72
2021/09/21 12:55:30;;;;;;;3.97;3.10;;;15.80;99.90;;;;;;5091283;28;20307;-72
2021/09/21 12:58:00;;;;;;;3.47;3.17;;;16.00;99.90;;;;;;5089876;28;20246;-72